首页
METAR-TAF:

METAR-TAF

机场 :

水牛城, 紐約州, 美国

纬度: 42-56-27N, 经度: 078-44-09W, 海拔: 220米

当前天气观测

该预报发布于30分钟前的10:17 UTC
风速6节,风向南转西南
温度 18°C
湿度 77%
气压 1010 hPa
能見度: 16.1公里
散云层高于3500英尺, 积雨云.
多云层高于7000英尺
多云层高于14000英尺
多云层高于25000英尺
雷暴, 小雨

METAR: KBUF 011017Z COR 20006KT 10SM -TSRA SCT035CB BKN070 BKN140 BKN250 18/14 A2983 RMK AO2 OCNL LTGIC SW-OHD-NE RAB04 TS SW-OHD-NE MOV E P0000 T01780139

时间: 06:47 (10:47 UTC)

预报

该预报发布于41分钟前的10:06 UTC
预报有效从01日的 10点(UTC)到 02日的 06点(UTC)
风速6节,风向
能見度: 10公里
散云层高于4000英尺, 积雨云.
多云层高于12000英尺
附近有雷暴
从 01日的 1100点(UTC)
风速9节,风向南转西南
能見度: 8.0公里
多云层高于3000英尺
轻雾, 附近有阵雨
从 01日的 1400点(UTC)
风速10节,风向西转西南,有时为16节阵风
能見度: 6.4公里
阴天层高于2500英尺
阵雨, 轻雾
从 01日的 1700点(UTC)
风速10节,风向西南,有时为16节阵风
能見度: 6.4公里
阴天层高于2500英尺, 积雨云.
阵雨, 轻雾, 附近有雷暴
从 01日的 1900点(UTC)
风速10节,风向西,有时为16节阵风
能見度: 9.7公里
阴天层高于3500英尺
轻雾, 附近有阵雨
从 01日的 2300点(UTC)
风速8节,风向西北
能見度: 6.4公里
多云层高于4000英尺
轻雾, 附近有阵雨

TAF: KBUF 011006Z 0110/0206 18006KT P6SM VCTS SCT040CB BKN120 FM011100 21009KT 5SM BR VCSH BKN030 FM011400 24010G16KT 4SM SHRA BR OVC025 FM011700 23010G16KT 4SM SHRA BR VCTS OVC025CB FM011900 27010G16KT 6SM BR VCSH OVC035 FM012300 32008KT 4SM BR VCSH BKN040

超过4000个机场的气象观测和天气预报(METAR&TAF报告)。

可查询的气象台以黄色和红色小点在地图上表示。

将鼠标移到小点上方,可查看气象台名称。

然后点击查看天气观测和预报。

如需切换地图:点击带黑十字的绿色按钮放大地图;点击带横线的绿色按钮缩小地图;或者点击绿色箭头查看邻近地区的地图。


METAR-TAF: